GIA119 WIPP-WIII
Flight info
| Callsign | GIA119 |
|---|---|
| Flight time | 0h 48m |
| Altitude | 33000 |
| Route | UDOKO T5 BUNIK |
| Aircraft | B38M/M-SDE2E3FGHIRWZ/LB1 |
Departure
| Time | 2026-04-30 10:08 |
|---|---|
| Airport | Sultan Mahmud Badaruddin II Airport (WIPP) |
Arrival
| Time | 2026-04-30 10:57 |
|---|---|
| Airport | Soekarno-Hatta International Airport (WIII) |
| Time | Latitude | Longitude | Altitude | Speed | Heading |
|---|---|---|---|---|---|
| 2026-04-30 09:52 | -2.89637 | 104.70500 | 52 ft | 0 kts | 22° |
| 2026-04-30 10:00 | -2.89660 | 104.70491 | 53 ft | 0 kts | 22° |
| 2026-04-30 10:00 | -2.89680 | 104.70483 | 53 ft | 0 kts | 25° |
| 2026-04-30 10:01 | -2.89703 | 104.70445 | 52 ft | 0 kts | 88° |
| 2026-04-30 10:01 | -2.89698 | 104.70421 | 52 ft | 0 kts | 114° |
| 2026-04-30 10:03 | -2.89705 | 104.70436 | 53 ft | 5 kts | 114° |
| 2026-04-30 10:03 | -2.89724 | 104.70478 | 52 ft | 8 kts | 113° |
| 2026-04-30 10:03 | -2.89754 | 104.70538 | 52 ft | 10 kts | 130° |
| 2026-04-30 10:03 | -2.89829 | 104.70545 | 52 ft | 12 kts | 199° |
| 2026-04-30 10:04 | -2.89900 | 104.70584 | 52 ft | 13 kts | 111° |
| 2026-04-30 10:04 | -2.89941 | 104.70682 | 52 ft | 16 kts | 113° |
| 2026-04-30 10:04 | -2.89985 | 104.70784 | 52 ft | 19 kts | 113° |
| 2026-04-30 10:04 | -2.90046 | 104.70922 | 52 ft | 21 kts | 114° |
| 2026-04-30 10:05 | -2.90079 | 104.70998 | 52 ft | 11 kts | 115° |
| 2026-04-30 10:05 | -2.90125 | 104.71054 | 52 ft | 5 kts | 164° |
| 2026-04-30 10:05 | -2.90166 | 104.71053 | 52 ft | 2 kts | 191° |
| 2026-04-30 10:05 | -2.90170 | 104.71053 | 52 ft | 0 kts | 192° |
| 2026-04-30 10:06 | -2.90176 | 104.71051 | 52 ft | 1 kts | 192° |
| 2026-04-30 10:06 | -2.90184 | 104.71049 | 53 ft | 1 kts | 192° |
| 2026-04-30 10:06 | -2.90189 | 104.71049 | 53 ft | 0 kts | 195° |
| 2026-04-30 10:06 | -2.90189 | 104.71048 | 53 ft | 0 kts | 205° |
| 2026-04-30 10:07 | -2.90193 | 104.71044 | 52 ft | 2 kts | 220° |
| 2026-04-30 10:07 | -2.90216 | 104.71024 | 52 ft | 6 kts | 223° |
| 2026-04-30 10:07 | -2.90239 | 104.70978 | 52 ft | 9 kts | 267° |
| 2026-04-30 10:07 | -2.90212 | 104.70898 | 53 ft | 22 kts | 292° |
| 2026-04-30 10:08 | -2.90006 | 104.70412 | 53 ft | 129 kts | 293° |
| 2026-04-30 10:08 | -2.89588 | 104.69423 | 642 ft | 170 kts | 293° |
| 2026-04-30 10:08 | -2.89149 | 104.68368 | 1861 ft | 174 kts | 295° |
| 2026-04-30 10:08 | -2.88659 | 104.67313 | 3093 ft | 169 kts | 305° |
| 2026-04-30 10:09 | -2.87730 | 104.66579 | 3925 ft | 184 kts | 341° |
| 2026-04-30 10:09 | -2.86440 | 104.66370 | 4728 ft | 205 kts | 1° |
| 2026-04-30 10:09 | -2.84937 | 104.66672 | 5016 ft | 229 kts | 26° |
| 2026-04-30 10:09 | -2.83752 | 104.67807 | 5003 ft | 244 kts | 60° |
| 2026-04-30 10:10 | -2.83151 | 104.69452 | 5139 ft | 267 kts | 73° |
| 2026-04-30 10:10 | -2.82663 | 104.71253 | 6349 ft | 271 kts | 73° |
| 2026-04-30 10:10 | -2.82136 | 104.73020 | 7745 ft | 271 kts | 71° |
| 2026-04-30 10:10 | -2.81562 | 104.74802 | 8985 ft | 279 kts | 71° |
| 2026-04-30 10:11 | -2.80941 | 104.76668 | 10173 ft | 289 kts | 71° |
| 2026-04-30 10:11 | -2.80305 | 104.78571 | 11252 ft | 301 kts | 71° |
| 2026-04-30 10:11 | -2.79867 | 104.79885 | 11861 ft | 311 kts | 71° |
| 2026-04-30 10:11 | -2.78918 | 104.82747 | 12975 ft | 333 kts | 72° |
| 2026-04-30 10:12 | -2.78383 | 104.85021 | 13717 ft | 349 kts | 83° |
| 2026-04-30 10:12 | -2.78538 | 104.87463 | 14711 ft | 358 kts | 103° |
| 2026-04-30 10:12 | -2.79372 | 104.89787 | 15668 ft | 363 kts | 111° |
| 2026-04-30 10:12 | -2.80364 | 104.92136 | 16624 ft | 367 kts | 111° |
| 2026-04-30 10:13 | -2.81371 | 104.94498 | 17495 ft | 373 kts | 111° |
| 2026-04-30 10:13 | -2.82368 | 104.96869 | 18351 ft | 377 kts | 111° |
| 2026-04-30 10:13 | -2.83371 | 104.99286 | 19177 ft | 381 kts | 111° |
| 2026-04-30 10:13 | -2.84397 | 105.01764 | 19952 ft | 387 kts | 112° |
| 2026-04-30 10:14 | -2.85538 | 105.04192 | 20764 ft | 390 kts | 117° |
| 2026-04-30 10:14 | -2.87022 | 105.06480 | 21444 ft | 397 kts | 127° |
| 2026-04-30 10:14 | -2.91233 | 105.10137 | 22787 ft | 411 kts | 147° |
| 2026-04-30 10:15 | -2.93850 | 105.11375 | 23452 ft | 419 kts | 157° |
| 2026-04-30 10:15 | -2.96618 | 105.12322 | 24082 ft | 424 kts | 159° |
| 2026-04-30 10:15 | -2.99403 | 105.13276 | 24663 ft | 429 kts | 158° |
| 2026-04-30 10:15 | -3.01956 | 105.14277 | 25226 ft | 431 kts | 154° |
| 2026-04-30 10:16 | -3.04831 | 105.15646 | 25845 ft | 435 kts | 150° |
| 2026-04-30 10:16 | -3.07493 | 105.17162 | 26422 ft | 438 kts | 146° |
| 2026-04-30 10:16 | -3.10068 | 105.18828 | 26967 ft | 442 kts | 143° |
| 2026-04-30 10:17 | -3.15083 | 105.22470 | 28060 ft | 449 kts | 140° |
| 2026-04-30 10:17 | -3.20021 | 105.26339 | 29157 ft | 456 kts | 139° |
| 2026-04-30 10:17 | -3.22513 | 105.28342 | 29753 ft | 458 kts | 139° |
| 2026-04-30 10:18 | -3.25002 | 105.30357 | 30337 ft | 460 kts | 139° |
| 2026-04-30 10:18 | -3.27449 | 105.32345 | 31225 ft | 455 kts | 139° |
| 2026-04-30 10:18 | -3.29913 | 105.34351 | 32015 ft | 452 kts | 139° |
| 2026-04-30 10:19 | -3.34773 | 105.38316 | 32824 ft | 454 kts | 139° |
| 2026-04-30 10:19 | -3.39637 | 105.42285 | 32837 ft | 449 kts | 139° |
| 2026-04-30 10:20 | -3.44517 | 105.46265 | 32839 ft | 449 kts | 139° |
| 2026-04-30 10:20 | -3.51786 | 105.52193 | 32843 ft | 449 kts | 139° |
| 2026-04-30 10:21 | -3.56617 | 105.56132 | 32842 ft | 448 kts | 139° |
| 2026-04-30 10:21 | -3.61476 | 105.60094 | 32841 ft | 448 kts | 139° |
| 2026-04-30 10:22 | -3.66316 | 105.64040 | 32839 ft | 448 kts | 139° |
| 2026-04-30 10:22 | -3.71150 | 105.67982 | 32842 ft | 448 kts | 139° |
| 2026-04-30 10:23 | -3.75971 | 105.71912 | 32844 ft | 448 kts | 138° |
| 2026-04-30 10:23 | -3.80825 | 105.75871 | 32844 ft | 448 kts | 138° |
| 2026-04-30 10:24 | -3.85664 | 105.79820 | 32845 ft | 449 kts | 138° |
| 2026-04-30 10:24 | -3.90507 | 105.83772 | 32845 ft | 449 kts | 138° |
| 2026-04-30 10:25 | -3.95365 | 105.87734 | 32846 ft | 449 kts | 138° |
| 2026-04-30 10:25 | -4.00205 | 105.91684 | 32843 ft | 449 kts | 138° |
| 2026-04-30 10:26 | -4.05014 | 105.95609 | 32849 ft | 448 kts | 138° |
| 2026-04-30 10:26 | -4.09866 | 105.99571 | 32857 ft | 448 kts | 138° |
| 2026-04-30 10:27 | -4.14709 | 106.03526 | 32853 ft | 448 kts | 138° |
| 2026-04-30 10:27 | -4.19557 | 106.07484 | 32842 ft | 449 kts | 138° |
| 2026-04-30 10:28 | -4.24408 | 106.11447 | 32841 ft | 449 kts | 138° |
| 2026-04-30 10:28 | -4.29262 | 106.15411 | 32844 ft | 450 kts | 138° |
| 2026-04-30 10:29 | -4.33304 | 106.18713 | 32841 ft | 449 kts | 138° |
| 2026-04-30 10:29 | -4.38948 | 106.23324 | 32841 ft | 449 kts | 138° |
| 2026-04-30 10:30 | -4.43822 | 106.27255 | 32840 ft | 450 kts | 139° |
| 2026-04-30 10:30 | -4.48691 | 106.31216 | 32842 ft | 450 kts | 138° |
| 2026-04-30 10:31 | -4.53532 | 106.35207 | 32842 ft | 450 kts | 138° |
| 2026-04-30 10:31 | -4.58377 | 106.39192 | 32842 ft | 450 kts | 138° |
| 2026-04-30 10:32 | -4.63216 | 106.43162 | 32842 ft | 450 kts | 138° |
| 2026-04-30 10:32 | -4.68075 | 106.47141 | 32842 ft | 450 kts | 138° |
| 2026-04-30 10:33 | -4.72912 | 106.51101 | 32841 ft | 451 kts | 138° |
| 2026-04-30 10:33 | -4.77775 | 106.55079 | 32841 ft | 451 kts | 138° |
| 2026-04-30 10:34 | -4.82528 | 106.59177 | 32843 ft | 450 kts | 135° |
| 2026-04-30 10:34 | -4.87491 | 106.63045 | 32752 ft | 455 kts | 146° |
| 2026-04-30 10:35 | -4.90296 | 106.64585 | 32466 ft | 457 kts | 151° |
| 2026-04-30 10:35 | -4.93151 | 106.65926 | 32205 ft | 456 kts | 153° |
| 2026-04-30 10:35 | -4.96128 | 106.66987 | 31556 ft | 457 kts | 164° |
| 2026-04-30 10:35 | -4.99320 | 106.67278 | 30278 ft | 471 kts | 182° |
| 2026-04-30 10:36 | -5.02539 | 106.66559 | 29487 ft | 468 kts | 196° |
| 2026-04-30 10:36 | -5.05606 | 106.65506 | 28759 ft | 462 kts | 198° |
| 2026-04-30 10:36 | -5.08590 | 106.64433 | 28017 ft | 457 kts | 198° |
| 2026-04-30 10:36 | -5.11531 | 106.63370 | 27312 ft | 451 kts | 198° |
| 2026-04-30 10:37 | -5.14482 | 106.62308 | 26563 ft | 446 kts | 198° |
| 2026-04-30 10:37 | -5.17385 | 106.61274 | 25867 ft | 440 kts | 198° |
| 2026-04-30 10:37 | -5.20278 | 106.60253 | 25148 ft | 435 kts | 198° |
| 2026-04-30 10:37 | -5.23134 | 106.59254 | 24402 ft | 431 kts | 198° |
| 2026-04-30 10:38 | -5.25927 | 106.58282 | 23696 ft | 426 kts | 197° |
| 2026-04-30 10:38 | -5.28702 | 106.57322 | 22999 ft | 421 kts | 197° |
| 2026-04-30 10:38 | -5.31484 | 106.56362 | 22286 ft | 417 kts | 197° |
| 2026-04-30 10:38 | -5.34194 | 106.55429 | 21591 ft | 412 kts | 197° |
| 2026-04-30 10:39 | -5.36900 | 106.54499 | 20884 ft | 409 kts | 197° |
| 2026-04-30 10:39 | -5.39596 | 106.53574 | 20150 ft | 405 kts | 197° |
| 2026-04-30 10:39 | -5.42224 | 106.52671 | 19477 ft | 401 kts | 197° |
| 2026-04-30 10:39 | -5.44876 | 106.51761 | 18729 ft | 398 kts | 197° |
| 2026-04-30 10:40 | -5.47491 | 106.50863 | 18025 ft | 394 kts | 197° |
| 2026-04-30 10:40 | -5.50050 | 106.49985 | 17297 ft | 391 kts | 197° |
| 2026-04-30 10:40 | -5.52599 | 106.49110 | 16636 ft | 385 kts | 197° |
| 2026-04-30 10:40 | -5.55113 | 106.48246 | 15968 ft | 381 kts | 197° |
| 2026-04-30 10:41 | -5.57634 | 106.47380 | 15298 ft | 375 kts | 197° |
| 2026-04-30 10:41 | -5.60089 | 106.46537 | 14635 ft | 370 kts | 197° |
| 2026-04-30 10:41 | -5.62492 | 106.45712 | 13967 ft | 366 kts | 197° |
| 2026-04-30 10:41 | -5.64885 | 106.44891 | 13360 ft | 360 kts | 197° |
| 2026-04-30 10:42 | -5.67240 | 106.44082 | 12787 ft | 353 kts | 197° |
| 2026-04-30 10:42 | -5.69538 | 106.43293 | 12233 ft | 346 kts | 197° |
| 2026-04-30 10:42 | -5.71825 | 106.42508 | 11683 ft | 340 kts | 198° |
| 2026-04-30 10:42 | -5.73306 | 106.41999 | 11337 ft | 337 kts | 198° |
| 2026-04-30 10:43 | -5.76222 | 106.40997 | 10791 ft | 329 kts | 198° |
| 2026-04-30 10:43 | -5.78407 | 106.40247 | 10508 ft | 333 kts | 198° |
| 2026-04-30 10:43 | -5.80556 | 106.39509 | 10364 ft | 315 kts | 198° |
| 2026-04-30 10:43 | -5.82601 | 106.38805 | 10245 ft | 299 kts | 198° |
| 2026-04-30 10:44 | -5.84532 | 106.38142 | 10064 ft | 287 kts | 198° |
| 2026-04-30 10:44 | -5.86419 | 106.37493 | 9698 ft | 285 kts | 198° |
| 2026-04-30 10:44 | -5.88285 | 106.36852 | 9324 ft | 282 kts | 198° |
| 2026-04-30 10:44 | -5.90135 | 106.36217 | 8971 ft | 279 kts | 198° |
| 2026-04-30 10:45 | -5.91951 | 106.35593 | 8624 ft | 276 kts | 198° |
| 2026-04-30 10:45 | -5.93768 | 106.34969 | 8281 ft | 273 kts | 198° |
| 2026-04-30 10:45 | -5.95563 | 106.34352 | 7944 ft | 270 kts | 198° |
| 2026-04-30 10:45 | -5.97331 | 106.33744 | 7605 ft | 267 kts | 198° |
| 2026-04-30 10:46 | -5.99096 | 106.33137 | 7308 ft | 262 kts | 198° |
| 2026-04-30 10:46 | -6.00220 | 106.32750 | 7215 ft | 255 kts | 198° |
| 2026-04-30 10:46 | -6.02419 | 106.31994 | 7126 ft | 239 kts | 198° |
| 2026-04-30 10:46 | -6.03456 | 106.31647 | 7079 ft | 232 kts | 195° |
| 2026-04-30 10:47 | -6.05540 | 106.31414 | 6929 ft | 231 kts | 171° |
| 2026-04-30 10:47 | -6.07168 | 106.31728 | 6701 ft | 240 kts | 166° |
| 2026-04-30 10:47 | -6.08828 | 106.32093 | 6456 ft | 240 kts | 167° |
| 2026-04-30 10:47 | -6.10472 | 106.32412 | 6217 ft | 239 kts | 168° |
| 2026-04-30 10:48 | -6.12113 | 106.32705 | 5977 ft | 238 kts | 168° |
| 2026-04-30 10:48 | -6.13760 | 106.32993 | 5739 ft | 238 kts | 168° |
| 2026-04-30 10:48 | -6.14861 | 106.33186 | 5577 ft | 237 kts | 168° |
| 2026-04-30 10:48 | -6.17010 | 106.33565 | 5261 ft | 235 kts | 168° |
| 2026-04-30 10:49 | -6.18624 | 106.33850 | 5022 ft | 231 kts | 167° |
| 2026-04-30 10:49 | -6.19660 | 106.34099 | 4864 ft | 229 kts | 160° |
| 2026-04-30 10:49 | -6.21021 | 106.34892 | 4621 ft | 225 kts | 131° |
| 2026-04-30 10:49 | -6.22153 | 106.36641 | 4310 ft | 223 kts | 117° |
| 2026-04-30 10:50 | -6.22897 | 106.37965 | 4179 ft | 212 kts | 118° |
| 2026-04-30 10:50 | -6.23505 | 106.39237 | 4163 ft | 199 kts | 102° |
| 2026-04-30 10:50 | -6.23529 | 106.40612 | 4162 ft | 196 kts | 79° |
| 2026-04-30 10:50 | -6.23194 | 106.41885 | 4169 ft | 183 kts | 72° |
| 2026-04-30 10:51 | -6.22780 | 106.43069 | 4164 ft | 174 kts | 69° |
| 2026-04-30 10:51 | -6.22492 | 106.43825 | 4163 ft | 175 kts | 69° |
| 2026-04-30 10:51 | -6.21884 | 106.45364 | 3947 ft | 175 kts | 68° |
| 2026-04-30 10:51 | -6.21431 | 106.46500 | 3690 ft | 173 kts | 68° |
| 2026-04-30 10:52 | -6.20981 | 106.47623 | 3459 ft | 173 kts | 68° |
| 2026-04-30 10:52 | -6.20533 | 106.48741 | 3223 ft | 171 kts | 68° |
| 2026-04-30 10:52 | -6.20091 | 106.49843 | 2995 ft | 171 kts | 68° |
| 2026-04-30 10:52 | -6.19649 | 106.50945 | 2767 ft | 171 kts | 68° |
| 2026-04-30 10:53 | -6.19204 | 106.52055 | 2540 ft | 168 kts | 68° |
| 2026-04-30 10:53 | -6.18771 | 106.53136 | 2319 ft | 168 kts | 68° |
| 2026-04-30 10:53 | -6.18328 | 106.54240 | 2094 ft | 168 kts | 68° |
| 2026-04-30 10:53 | -6.17896 | 106.55316 | 1896 ft | 168 kts | 68° |
| 2026-04-30 10:54 | -6.17459 | 106.56406 | 1662 ft | 166 kts | 67° |
| 2026-04-30 10:54 | -6.17052 | 106.57421 | 1437 ft | 147 kts | 67° |
| 2026-04-30 10:54 | -6.16686 | 106.58334 | 1266 ft | 139 kts | 67° |
| 2026-04-30 10:54 | -6.16324 | 106.59230 | 1100 ft | 138 kts | 68° |
| 2026-04-30 10:55 | -6.15976 | 106.60101 | 940 ft | 136 kts | 67° |
| 2026-04-30 10:55 | -6.15613 | 106.61005 | 750 ft | 138 kts | 67° |
| 2026-04-30 10:55 | -6.15251 | 106.61906 | 569 ft | 139 kts | 67° |
| 2026-04-30 10:55 | -6.14888 | 106.62806 | 416 ft | 139 kts | 66° |
| 2026-04-30 10:56 | -6.14519 | 106.63705 | 234 ft | 140 kts | 67° |
| 2026-04-30 10:56 | -6.14161 | 106.64600 | 77 ft | 137 kts | 67° |
| 2026-04-30 10:56 | -6.13853 | 106.65379 | 48 ft | 104 kts | 66° |
| 2026-04-30 10:56 | -6.13621 | 106.65939 | 48 ft | 75 kts | 67° |
| 2026-04-30 10:57 | -6.13491 | 106.66202 | 48 ft | 26 kts | 43° |
| 2026-04-30 10:57 | -6.13403 | 106.66273 | 48 ft | 8 kts | 41° |
| 2026-04-30 10:57 | -6.13357 | 106.66299 | 48 ft | 9 kts | 6° |
| 2026-04-30 10:57 | -6.13286 | 106.66325 | 48 ft | 13 kts | 51° |
| 2026-04-30 10:58 | -6.13239 | 106.66439 | 48 ft | 22 kts | 66° |
| 2026-04-30 10:58 | -6.13167 | 106.66609 | 48 ft | 26 kts | 68° |
| 2026-04-30 10:58 | -6.13098 | 106.66779 | 48 ft | 26 kts | 68° |
| 2026-04-30 10:58 | -6.13032 | 106.66942 | 48 ft | 24 kts | 69° |
| 2026-04-30 10:59 | -6.12982 | 106.67078 | 48 ft | 22 kts | 69° |
| 2026-04-30 10:59 | -6.12953 | 106.67149 | 48 ft | 20 kts | 66° |
| 2026-04-30 10:59 | -6.12898 | 106.67285 | 48 ft | 18 kts | 68° |
| 2026-04-30 11:00 | -6.12868 | 106.67360 | 48 ft | 17 kts | 68° |
| 2026-04-30 11:00 | -6.12839 | 106.67426 | 48 ft | 19 kts | 62° |
| 2026-04-30 11:00 | -6.12800 | 106.67498 | 48 ft | 21 kts | 60° |
| 2026-04-30 11:01 | -6.12691 | 106.67684 | 48 ft | 18 kts | 59° |
| 2026-04-30 11:01 | -6.12620 | 106.67776 | 48 ft | 14 kts | 41° |
| 2026-04-30 11:01 | -6.12536 | 106.67834 | 48 ft | 14 kts | 23° |
| 2026-04-30 11:01 | -6.12434 | 106.67859 | 48 ft | 15 kts | 4° |
| 2026-04-30 11:02 | -6.12324 | 106.67850 | 48 ft | 16 kts | 342° |
| 2026-04-30 11:02 | -6.12226 | 106.67810 | 52 ft | 13 kts | 337° |
| 2026-04-30 11:02 | -6.12140 | 106.67776 | 57 ft | 14 kts | 339° |
| 2026-04-30 11:02 | -6.12036 | 106.67738 | 62 ft | 17 kts | 337° |
| 2026-04-30 11:03 | -6.11923 | 106.67690 | 68 ft | 16 kts | 340° |
| 2026-04-30 11:03 | -6.11814 | 106.67648 | 72 ft | 17 kts | 337° |
| 2026-04-30 11:03 | -6.11688 | 106.67597 | 67 ft | 23 kts | 339° |
| 2026-04-30 11:04 | -6.11430 | 106.67496 | 48 ft | 22 kts | 338° |
| 2026-04-30 11:04 | -6.11276 | 106.67435 | 48 ft | 25 kts | 338° |
| 2026-04-30 11:04 | -6.11105 | 106.67357 | 48 ft | 26 kts | 311° |
| 2026-04-30 11:04 | -6.11109 | 106.67174 | 48 ft | 28 kts | 257° |
| 2026-04-30 11:05 | -6.11160 | 106.66985 | 48 ft | 26 kts | 249° |
| 2026-04-30 11:05 | -6.11225 | 106.66820 | 48 ft | 24 kts | 248° |
| 2026-04-30 11:05 | -6.11285 | 106.66668 | 48 ft | 21 kts | 249° |
| 2026-04-30 11:05 | -6.11339 | 106.66534 | 48 ft | 19 kts | 247° |
| 2026-04-30 11:06 | -6.11387 | 106.66413 | 48 ft | 17 kts | 249° |
| 2026-04-30 11:06 | -6.11455 | 106.66335 | 48 ft | 13 kts | 171° |
| 2026-04-30 11:06 | -6.11539 | 106.66367 | 48 ft | 11 kts | 155° |
| 2026-04-30 11:06 | -6.11608 | 106.66395 | 48 ft | 9 kts | 159° |
| 2026-04-30 11:07 | -6.11665 | 106.66394 | 48 ft | 6 kts | 214° |
| 2026-04-30 11:07 | -6.11686 | 106.66361 | 48 ft | 4 kts | 246° |
| 2026-04-30 11:07 | -6.11698 | 106.66333 | 48 ft | 4 kts | 247° |
| 2026-04-30 11:07 | -6.11716 | 106.66286 | 48 ft | 9 kts | 250° |
| 2026-04-30 11:08 | -6.11758 | 106.66264 | 48 ft | 9 kts | 162° |
| 2026-04-30 11:08 | -6.11805 | 106.66282 | 48 ft | 6 kts | 159° |
| 2026-04-30 11:08 | -6.11822 | 106.66290 | 48 ft | 3 kts | 152° |
| 2026-04-30 11:08 | -6.11832 | 106.66297 | 48 ft | 0 kts | 134° |
| 2026-04-30 11:09 | -6.11835 | 106.66300 | 48 ft | 0 kts | 134° |